<?xml version="1.0" encoding="utf-8"?>
<gpx xmlns:xsi="http://www.w3.org/2001/XMLSchema-instance" xmlns:xsd="http://www.w3.org/2001/XMLSchema" version="1.1" creator="Shapelink.com" xmlns="http://www.topografix.com/GPX/1/1" xmlns:gpxtpx="http://www.garmin.com/xmlschemas/TrackPointExtension/v1">
  <metadata>
    <name>Cykling 8.08 km, 2019-04-22</name>
    <desc></desc>
    <author><name>Marian Moron</name></author> 
    <time>2019-04-22T16:11:18Z</time>
  </metadata>
  <trk>
    <name>Cykling 8.08 km, 2019-04-22</name>
    <trkseg>
      <trkpt lat="52.002408562565" lon="4.128359083759">
        <ele>0</ele>
        <time>2019-04-22T16:11:18Z</time>
      </trkpt>
      <trkpt lat="52.002382746313" lon="4.128393784825">
        <ele>0</ele>
        <time>2019-04-22T16:11:20Z</time>
      </trkpt>
      <trkpt lat="52.002020648233" lon="4.129033994347">
        <ele>0</ele>
        <time>2019-04-22T16:11:52Z</time>
      </trkpt>
      <trkpt lat="52.001743961714" lon="4.129796579609">
        <ele>0</ele>
        <time>2019-04-22T16:12:13Z</time>
      </trkpt>
      <trkpt lat="52.001560481923" lon="4.130220955206">
        <ele>0</ele>
        <time>2019-04-22T16:12:29Z</time>
      </trkpt>
      <trkpt lat="52.001233336366" lon="4.13102025319">
        <ele>1.8</ele>
        <time>2019-04-22T16:13:38Z</time>
      </trkpt>
      <trkpt lat="52.000966372851" lon="4.131788957239">
        <ele>0.4</ele>
        <time>2019-04-22T16:14:03Z</time>
      </trkpt>
      <trkpt lat="52.000701169535" lon="4.132547016275">
        <ele>0.8</ele>
        <time>2019-04-22T16:14:23Z</time>
      </trkpt>
      <trkpt lat="52.000438480789" lon="4.133339273463">
        <ele>0</ele>
        <time>2019-04-22T16:14:40Z</time>
      </trkpt>
      <trkpt lat="51.999987534569" lon="4.133545384384">
        <ele>0</ele>
        <time>2019-04-22T16:15:03Z</time>
      </trkpt>
      <trkpt lat="51.999438017205" lon="4.133398701134">
        <ele>0</ele>
        <time>2019-04-22T16:15:25Z</time>
      </trkpt>
      <trkpt lat="51.998891601144" lon="4.133436419684">
        <ele>0</ele>
        <time>2019-04-22T16:15:39Z</time>
      </trkpt>
      <trkpt lat="51.99835214206" lon="4.133637501465">
        <ele>0</ele>
        <time>2019-04-22T16:15:54Z</time>
      </trkpt>
      <trkpt lat="51.997823663265" lon="4.133918211296">
        <ele>0</ele>
        <time>2019-04-22T16:16:11Z</time>
      </trkpt>
      <trkpt lat="51.997359557462" lon="4.134374521932">
        <ele>0</ele>
        <time>2019-04-22T16:16:26Z</time>
      </trkpt>
      <trkpt lat="51.996949766371" lon="4.134840974667">
        <ele>0</ele>
        <time>2019-04-22T16:16:49Z</time>
      </trkpt>
      <trkpt lat="51.996449953674" lon="4.135171137708">
        <ele>0</ele>
        <time>2019-04-22T16:17:06Z</time>
      </trkpt>
      <trkpt lat="51.995950811529" lon="4.135586460853">
        <ele>0</ele>
        <time>2019-04-22T16:17:22Z</time>
      </trkpt>
      <trkpt lat="51.995525933018" lon="4.136158022614">
        <ele>0</ele>
        <time>2019-04-22T16:17:38Z</time>
      </trkpt>
      <trkpt lat="51.995171881562" lon="4.136832095012">
        <ele>0</ele>
        <time>2019-04-22T16:17:57Z</time>
      </trkpt>
      <trkpt lat="51.994811878957" lon="4.137572803515">
        <ele>0</ele>
        <time>2019-04-22T16:18:16Z</time>
      </trkpt>
      <trkpt lat="51.994487331789" lon="4.138304291928">
        <ele>0</ele>
        <time>2019-04-22T16:18:35Z</time>
      </trkpt>
      <trkpt lat="51.994214417125" lon="4.139085233551">
        <ele>0</ele>
        <time>2019-04-22T16:18:54Z</time>
      </trkpt>
      <trkpt lat="51.9941913669" lon="4.13967205037">
        <ele>0</ele>
        <time>2019-04-22T16:19:10Z</time>
      </trkpt>
      <trkpt lat="51.99394158628" lon="4.139557637435">
        <ele>0</ele>
        <time>2019-04-22T16:19:27Z</time>
      </trkpt>
      <trkpt lat="51.993788700424" lon="4.139960974463">
        <ele>0</ele>
        <time>2019-04-22T16:19:40Z</time>
      </trkpt>
      <trkpt lat="51.993332557426" lon="4.139488319122">
        <ele>0</ele>
        <time>2019-04-22T16:20:02Z</time>
      </trkpt>
      <trkpt lat="51.992879264274" lon="4.139002001284">
        <ele>0</ele>
        <time>2019-04-22T16:20:18Z</time>
      </trkpt>
      <trkpt lat="51.99240099306" lon="4.138560442792">
        <ele>0</ele>
        <time>2019-04-22T16:20:33Z</time>
      </trkpt>
      <trkpt lat="51.991905538951" lon="4.138211420476">
        <ele>0</ele>
        <time>2019-04-22T16:20:47Z</time>
      </trkpt>
      <trkpt lat="51.991418550561" lon="4.137776148409">
        <ele>0</ele>
        <time>2019-04-22T16:21:02Z</time>
      </trkpt>
      <trkpt lat="51.991105738053" lon="4.137386473878">
        <ele>0</ele>
        <time>2019-04-22T16:21:14Z</time>
      </trkpt>
      <trkpt lat="51.991319057408" lon="4.136555073217">
        <ele>0</ele>
        <time>2019-04-22T16:21:32Z</time>
      </trkpt>
      <trkpt lat="51.991617536867" lon="4.135819058578">
        <ele>0</ele>
        <time>2019-04-22T16:21:50Z</time>
      </trkpt>
      <trkpt lat="51.991941497302" lon="4.135069632899">
        <ele>1</ele>
        <time>2019-04-22T16:22:08Z</time>
      </trkpt>
      <trkpt lat="51.992252968706" lon="4.134346861662">
        <ele>0</ele>
        <time>2019-04-22T16:22:24Z</time>
      </trkpt>
      <trkpt lat="51.992555890572" lon="4.133589054083">
        <ele>0</ele>
        <time>2019-04-22T16:22:41Z</time>
      </trkpt>
      <trkpt lat="51.992900973395" lon="4.132862259534">
        <ele>0</ele>
        <time>2019-04-22T16:22:58Z</time>
      </trkpt>
      <trkpt lat="51.992967106586" lon="4.132769723358">
        <ele>0</ele>
        <time>2019-04-22T16:23:01Z</time>
      </trkpt>
      <trkpt lat="51.993440097203" lon="4.133273056453">
        <ele>0</ele>
        <time>2019-04-22T16:23:20Z</time>
      </trkpt>
      <trkpt lat="51.99391811696" lon="4.133779071756">
        <ele>0</ele>
        <time>2019-04-22T16:23:37Z</time>
      </trkpt>
      <trkpt lat="51.994365542782" lon="4.134264970499">
        <ele>0</ele>
        <time>2019-04-22T16:23:55Z</time>
      </trkpt>
      <trkpt lat="51.994804586704" lon="4.134812979121">
        <ele>0</ele>
        <time>2019-04-22T16:24:18Z</time>
      </trkpt>
      <trkpt lat="51.99523323707" lon="4.135412452609">
        <ele>0</ele>
        <time>2019-04-22T16:24:38Z</time>
      </trkpt>
      <trkpt lat="51.995571279097" lon="4.135951241141">
        <ele>0</ele>
        <time>2019-04-22T16:25:10Z</time>
      </trkpt>
      <trkpt lat="51.995579828635" lon="4.135978817592">
        <ele>0</ele>
        <time>2019-04-22T16:25:12Z</time>
      </trkpt>
      <trkpt lat="51.99601610653" lon="4.136540823987">
        <ele>0</ele>
        <time>2019-04-22T16:25:41Z</time>
      </trkpt>
      <trkpt lat="51.996432351684" lon="4.137133843412">
        <ele>1.8</ele>
        <time>2019-04-22T16:25:57Z</time>
      </trkpt>
      <trkpt lat="51.996849854123" lon="4.137728539217">
        <ele>2.6</ele>
        <time>2019-04-22T16:26:13Z</time>
      </trkpt>
      <trkpt lat="51.997291328796" lon="4.138319295529">
        <ele>0.2</ele>
        <time>2019-04-22T16:26:28Z</time>
      </trkpt>
      <trkpt lat="51.99770422119" lon="4.138883648856">
        <ele>0</ele>
        <time>2019-04-22T16:26:44Z</time>
      </trkpt>
      <trkpt lat="51.99812163981" lon="4.139481278326">
        <ele>0.2</ele>
        <time>2019-04-22T16:27:00Z</time>
      </trkpt>
      <trkpt lat="51.998562192474" lon="4.140036160106">
        <ele>1.6</ele>
        <time>2019-04-22T16:27:15Z</time>
      </trkpt>
      <trkpt lat="51.99898162275" lon="4.140591041886">
        <ele>3.2</ele>
        <time>2019-04-22T16:27:32Z</time>
      </trkpt>
      <trkpt lat="51.999405076338" lon="4.141155814308">
        <ele>4</ele>
        <time>2019-04-22T16:27:49Z</time>
      </trkpt>
      <trkpt lat="51.999532565037" lon="4.141207362993">
        <ele>1.2</ele>
        <time>2019-04-22T16:27:55Z</time>
      </trkpt>
      <trkpt lat="51.999562907515" lon="4.141152210091">
        <ele>0</ele>
        <time>2019-04-22T16:27:59Z</time>
      </trkpt>
      <trkpt lat="51.999524602232" lon="4.141130333332">
        <ele>0</ele>
        <time>2019-04-22T16:30:34Z</time>
      </trkpt>
      <trkpt lat="51.999539438195" lon="4.141078030276">
        <ele>0</ele>
        <time>2019-04-22T16:30:39Z</time>
      </trkpt>
      <trkpt lat="52.000021062169" lon="4.140648457901">
        <ele>0</ele>
        <time>2019-04-22T16:31:00Z</time>
      </trkpt>
      <trkpt lat="52.000533782992" lon="4.140354756125">
        <ele>0</ele>
        <time>2019-04-22T16:31:17Z</time>
      </trkpt>
      <trkpt lat="52.000829412605" lon="4.140187704858">
        <ele>0</ele>
        <time>2019-04-22T16:31:25Z</time>
      </trkpt>
      <trkpt lat="52.000944160816" lon="4.140101790383">
        <ele>0</ele>
        <time>2019-04-22T16:31:28Z</time>
      </trkpt>
      <trkpt lat="52.001457971286" lon="4.139760982329">
        <ele>0</ele>
        <time>2019-04-22T16:31:40Z</time>
      </trkpt>
      <trkpt lat="52.001989299927" lon="4.139387736322">
        <ele>0</ele>
        <time>2019-04-22T16:31:51Z</time>
      </trkpt>
      <trkpt lat="52.002516018523" lon="4.139055058711">
        <ele>0</ele>
        <time>2019-04-22T16:32:03Z</time>
      </trkpt>
      <trkpt lat="52.003031002459" lon="4.138713831562">
        <ele>0</ele>
        <time>2019-04-22T16:32:16Z</time>
      </trkpt>
      <trkpt lat="52.00354472911" lon="4.138351146749">
        <ele>0</ele>
        <time>2019-04-22T16:32:30Z</time>
      </trkpt>
      <trkpt lat="52.003806160571" lon="4.138099689749">
        <ele>0</ele>
        <time>2019-04-22T16:32:39Z</time>
      </trkpt>
      <trkpt lat="52.003355381989" lon="4.137576743008">
        <ele>0</ele>
        <time>2019-04-22T16:32:57Z</time>
      </trkpt>
      <trkpt lat="52.002981716887" lon="4.137137699086">
        <ele>0</ele>
        <time>2019-04-22T16:33:08Z</time>
      </trkpt>
      <trkpt lat="52.002556670738" lon="4.136598491459">
        <ele>0</ele>
        <time>2019-04-22T16:33:20Z</time>
      </trkpt>
      <trkpt lat="52.002118632644" lon="4.136054757606">
        <ele>0</ele>
        <time>2019-04-22T16:33:33Z</time>
      </trkpt>
      <trkpt lat="52.001669278985" lon="4.13547271847">
        <ele>0</ele>
        <time>2019-04-22T16:33:47Z</time>
      </trkpt>
      <trkpt lat="52.001563667045" lon="4.13534950454">
        <ele>0</ele>
        <time>2019-04-22T16:33:50Z</time>
      </trkpt>
      <trkpt lat="52.001114732481" lon="4.13483401769">
        <ele>0</ele>
        <time>2019-04-22T16:34:03Z</time>
      </trkpt>
      <trkpt lat="52.000608130445" lon="4.134456245457">
        <ele>0</ele>
        <time>2019-04-22T16:34:18Z</time>
      </trkpt>
      <trkpt lat="52.000133631086" lon="4.134006305065">
        <ele>0</ele>
        <time>2019-04-22T16:34:35Z</time>
      </trkpt>
      <trkpt lat="51.999633986027" lon="4.133614032145">
        <ele>0.4</ele>
        <time>2019-04-22T16:34:55Z</time>
      </trkpt>
      <trkpt lat="51.999531978304" lon="4.133501463228">
        <ele>0.6</ele>
        <time>2019-04-22T16:35:00Z</time>
      </trkpt>
      <trkpt lat="51.999521165653" lon="4.133426948137">
        <ele>0.8</ele>
        <time>2019-04-22T16:35:03Z</time>
      </trkpt>
      <trkpt lat="51.998951112634" lon="4.133402556808">
        <ele>0</ele>
        <time>2019-04-22T16:35:22Z</time>
      </trkpt>
      <trkpt lat="51.998868048005" lon="4.133414794382">
        <ele>0</ele>
        <time>2019-04-22T16:35:24Z</time>
      </trkpt>
      <trkpt lat="51.998321380487" lon="4.133626018262">
        <ele>0</ele>
        <time>2019-04-22T16:35:37Z</time>
      </trkpt>
      <trkpt lat="51.99780983313" lon="4.133915864364">
        <ele>0</ele>
        <time>2019-04-22T16:35:54Z</time>
      </trkpt>
      <trkpt lat="51.99736475424" lon="4.134397823614">
        <ele>0</ele>
        <time>2019-04-22T16:36:11Z</time>
      </trkpt>
      <trkpt lat="51.997214802049" lon="4.134704768792">
        <ele>0</ele>
        <time>2019-04-22T16:36:21Z</time>
      </trkpt>
      <trkpt lat="51.997234248057" lon="4.134767716861">
        <ele>0</ele>
        <time>2019-04-22T16:36:23Z</time>
      </trkpt>
      <trkpt lat="51.997748812898" lon="4.135058987886">
        <ele>3.6</ele>
        <time>2019-04-22T16:36:42Z</time>
      </trkpt>
      <trkpt lat="51.998038994276" lon="4.13580715628">
        <ele>0</ele>
        <time>2019-04-22T16:36:58Z</time>
      </trkpt>
      <trkpt lat="51.998195484349" lon="4.136628414842">
        <ele>0</ele>
        <time>2019-04-22T16:37:17Z</time>
      </trkpt>
      <trkpt lat="51.998153407211" lon="4.137528882359">
        <ele>0</ele>
        <time>2019-04-22T16:37:35Z</time>
      </trkpt>
      <trkpt lat="51.998532688186" lon="4.138111089133">
        <ele>0</ele>
        <time>2019-04-22T16:37:50Z</time>
      </trkpt>
      <trkpt lat="51.998871484584" lon="4.138789184843">
        <ele>0</ele>
        <time>2019-04-22T16:38:09Z</time>
      </trkpt>
      <trkpt lat="51.99931689875" lon="4.139076181099">
        <ele>0</ele>
        <time>2019-04-22T16:38:27Z</time>
      </trkpt>
      <trkpt lat="51.999720403416" lon="4.138490537746">
        <ele>0</ele>
        <time>2019-04-22T16:38:46Z</time>
      </trkpt>
      <trkpt lat="52.000233291877" lon="4.138637053358">
        <ele>2.8</ele>
        <time>2019-04-22T16:39:03Z</time>
      </trkpt>
      <trkpt lat="52.000784401802" lon="4.140047978585">
        <ele>0</ele>
        <time>2019-04-22T16:39:36Z</time>
      </trkpt>
      <trkpt lat="52.000841147265" lon="4.140186363754">
        <ele>0</ele>
        <time>2019-04-22T16:39:41Z</time>
      </trkpt>
      <trkpt lat="52.001358561952" lon="4.139834826868">
        <ele>0</ele>
        <time>2019-04-22T16:39:58Z</time>
      </trkpt>
      <trkpt lat="52.001595853541" lon="4.139660399529">
        <ele>0</ele>
        <time>2019-04-22T16:40:04Z</time>
      </trkpt>
      <trkpt lat="52.002105808337" lon="4.13933006885">
        <ele>0</ele>
        <time>2019-04-22T16:40:17Z</time>
      </trkpt>
      <trkpt lat="52.002604531387" lon="4.13896629439">
        <ele>0</ele>
        <time>2019-04-22T16:40:30Z</time>
      </trkpt>
      <trkpt lat="52.003111803975" lon="4.138643758878">
        <ele>0</ele>
        <time>2019-04-22T16:40:44Z</time>
      </trkpt>
      <trkpt lat="52.003609185921" lon="4.13829825696">
        <ele>0</ele>
        <time>2019-04-22T16:41:01Z</time>
      </trkpt>
      <trkpt lat="52.00368554503" lon="4.138260119315">
        <ele>0</ele>
        <time>2019-04-22T16:41:05Z</time>
      </trkpt>
      <trkpt lat="52.004148393548" lon="4.13852037731">
        <ele>0</ele>
        <time>2019-04-22T16:41:31Z</time>
      </trkpt>
      <trkpt lat="52.004168174832" lon="4.138556922394">
        <ele>0</ele>
        <time>2019-04-22T16:41:35Z</time>
      </trkpt>
      <trkpt lat="52.004571595679" lon="4.13912890325">
        <ele>0</ele>
        <time>2019-04-22T16:43:51Z</time>
      </trkpt>
      <trkpt lat="52.004697994731" lon="4.139247423316">
        <ele>0</ele>
        <time>2019-04-22T16:44:05Z</time>
      </trkpt>
      <trkpt lat="52.004748202312" lon="4.139249434972">
        <ele>0</ele>
        <time>2019-04-22T16:44:16Z</time>
      </trkpt>
      <trkpt lat="52.005142067793" lon="4.139876317273">
        <ele>0</ele>
        <time>2019-04-22T16:44:39Z</time>
      </trkpt>
      <trkpt lat="52.005573316548" lon="4.14040295205">
        <ele>0</ele>
        <time>2019-04-22T16:44:59Z</time>
      </trkpt>
      <trkpt lat="52.006095006004" lon="4.140851718976">
        <ele>0</ele>
        <time>2019-04-22T16:45:21Z</time>
      </trkpt>
      <trkpt lat="52.006560117635" lon="4.141308783983">
        <ele>0</ele>
        <time>2019-04-22T16:45:42Z</time>
      </trkpt>
      <trkpt lat="52.00704333417" lon="4.141716479599">
        <ele>0</ele>
        <time>2019-04-22T16:46:00Z</time>
      </trkpt>
      <trkpt lat="52.007121956392" lon="4.141794263631">
        <ele>0</ele>
        <time>2019-04-22T16:46:03Z</time>
      </trkpt>
      <trkpt lat="52.007173924172" lon="4.141840866995">
        <ele>0</ele>
        <time>2019-04-22T16:46:05Z</time>
      </trkpt>
      <trkpt lat="52.007601233434" lon="4.142403879218">
        <ele>0</ele>
        <time>2019-04-22T16:46:27Z</time>
      </trkpt>
      <trkpt lat="52.007969198844" lon="4.143111227759">
        <ele>0</ele>
        <time>2019-04-22T16:46:48Z</time>
      </trkpt>
      <trkpt lat="52.008322076834" lon="4.143807763649">
        <ele>0</ele>
        <time>2019-04-22T16:47:07Z</time>
      </trkpt>
      <trkpt lat="52.008679145774" lon="4.144492900155">
        <ele>0</ele>
        <time>2019-04-22T16:47:31Z</time>
      </trkpt>
      <trkpt lat="52.009021630208" lon="4.145170073856">
        <ele>0</ele>
        <time>2019-04-22T16:47:54Z</time>
      </trkpt>
      <trkpt lat="52.009174935159" lon="4.145471822256">
        <ele>0</ele>
        <time>2019-04-22T16:48:05Z</time>
      </trkpt>
      <trkpt lat="52.009511719901" lon="4.146203562126">
        <ele>0</ele>
        <time>2019-04-22T16:48:30Z</time>
      </trkpt>
      <trkpt lat="52.009781281805" lon="4.146986599224">
        <ele>0</ele>
        <time>2019-04-22T16:48:51Z</time>
      </trkpt>
      <trkpt lat="52.009885217365" lon="4.147271751462">
        <ele>0</ele>
        <time>2019-04-22T16:49:01Z</time>
      </trkpt>
      <trkpt lat="52.00990910578" lon="4.147332687875">
        <ele>0</ele>
        <time>2019-04-22T16:49:07Z</time>
      </trkpt>
      <trkpt lat="52.00992167863" lon="4.147388930424">
        <ele>0</ele>
        <time>2019-04-22T16:49:10Z</time>
      </trkpt>
      <trkpt lat="52.0098739018" lon="4.147435869064">
        <ele>0</ele>
        <time>2019-04-22T16:49:17Z</time>
      </trkpt>
      <trkpt lat="52.009860658398" lon="4.147415081952">
        <ele>0</ele>
        <time>2019-04-22T16:49:18Z</time>
      </trkpt>
      <trkpt lat="52.009847498815" lon="4.147376776669">
        <ele>0</ele>
        <time>2019-04-22T16:49:54Z</time>
      </trkpt>
      <trkpt lat="52.009814809405" lon="4.14733813611">
        <ele>0</ele>
        <time>2019-04-22T16:49:57Z</time>
      </trkpt>
      <trkpt lat="52.00954784589" lon="4.146557948858">
        <ele>0</ele>
        <time>2019-04-22T16:50:16Z</time>
      </trkpt>
      <trkpt lat="52.009258251245" lon="4.145809193731">
        <ele>0</ele>
        <time>2019-04-22T16:50:31Z</time>
      </trkpt>
      <trkpt lat="52.008909312748" lon="4.14510771252">
        <ele>0</ele>
        <time>2019-04-22T16:50:47Z</time>
      </trkpt>
      <trkpt lat="52.008555848025" lon="4.144411931001">
        <ele>0</ele>
        <time>2019-04-22T16:51:02Z</time>
      </trkpt>
      <trkpt lat="52.008530199411" lon="4.144361974877">
        <ele>0</ele>
        <time>2019-04-22T16:51:03Z</time>
      </trkpt>
      <trkpt lat="52.008162150182" lon="4.143649764834">
        <ele>0</ele>
        <time>2019-04-22T16:51:17Z</time>
      </trkpt>
      <trkpt lat="52.007814804246" lon="4.142967142898">
        <ele>0</ele>
        <time>2019-04-22T16:51:32Z</time>
      </trkpt>
      <trkpt lat="52.007441642058" lon="4.14227379213">
        <ele>0</ele>
        <time>2019-04-22T16:51:46Z</time>
      </trkpt>
      <trkpt lat="52.0069653825" lon="4.141777667469">
        <ele>0</ele>
        <time>2019-04-22T16:52:03Z</time>
      </trkpt>
      <trkpt lat="52.006492224245" lon="4.141344155601">
        <ele>0</ele>
        <time>2019-04-22T16:52:19Z</time>
      </trkpt>
      <trkpt lat="52.006022586388" lon="4.140904524946">
        <ele>0</ele>
        <time>2019-04-22T16:52:34Z</time>
      </trkpt>
      <trkpt lat="52.005547500296" lon="4.140471432173">
        <ele>0</ele>
        <time>2019-04-22T16:52:49Z</time>
      </trkpt>
      <trkpt lat="52.005094458601" lon="4.139972541485">
        <ele>0</ele>
        <time>2019-04-22T16:53:04Z</time>
      </trkpt>
      <trkpt lat="52.005028744505" lon="4.139877323101">
        <ele>0</ele>
        <time>2019-04-22T16:53:06Z</time>
      </trkpt>
      <trkpt lat="52.004651307548" lon="4.139243902918">
        <ele>0</ele>
        <time>2019-04-22T16:53:18Z</time>
      </trkpt>
      <trkpt lat="52.004236068222" lon="4.138622133576">
        <ele>0</ele>
        <time>2019-04-22T16:53:31Z</time>
      </trkpt>
      <trkpt lat="52.00378528964" lon="4.138096839903">
        <ele>0</ele>
        <time>2019-04-22T16:53:40Z</time>
      </trkpt>
      <trkpt lat="52.003314310679" lon="4.137572049144">
        <ele>0</ele>
        <time>2019-04-22T16:53:51Z</time>
      </trkpt>
      <trkpt lat="52.002983728543" lon="4.137171059048">
        <ele>0</ele>
        <time>2019-04-22T16:54:00Z</time>
      </trkpt>
      <trkpt lat="52.002915080782" lon="4.137095370491">
        <ele>0</ele>
        <time>2019-04-22T16:54:02Z</time>
      </trkpt>
      <trkpt lat="52.002624731766" lon="4.136732350402">
        <ele>0</ele>
        <time>2019-04-22T16:54:12Z</time>
      </trkpt>
      <trkpt lat="52.00218350855" lon="4.136164476677">
        <ele>0</ele>
        <time>2019-04-22T16:54:27Z</time>
      </trkpt>
      <trkpt lat="52.001739770764" lon="4.135586125577">
        <ele>0</ele>
        <time>2019-04-22T16:54:44Z</time>
      </trkpt>
      <trkpt lat="52.001317239185" lon="4.135051695633">
        <ele>0</ele>
        <time>2019-04-22T16:55:00Z</time>
      </trkpt>
      <trkpt lat="52.0008130679" lon="4.134547859624">
        <ele>0</ele>
        <time>2019-04-22T16:55:21Z</time>
      </trkpt>
      <trkpt lat="52.000313925755" lon="4.134132787936">
        <ele>0</ele>
        <time>2019-04-22T16:55:33Z</time>
      </trkpt>
      <trkpt lat="51.999813191049" lon="4.133752249676">
        <ele>0</ele>
        <time>2019-04-22T16:55:51Z</time>
      </trkpt>
      <trkpt lat="51.999522003843" lon="4.133519316675">
        <ele>0</ele>
        <time>2019-04-22T16:56:05Z</time>
      </trkpt>
      <trkpt lat="51.999535163426" lon="4.133455111321">
        <ele>0</ele>
        <time>2019-04-22T16:56:07Z</time>
      </trkpt>
      <trkpt lat="52.000080657478" lon="4.133570194808">
        <ele>1.8</ele>
        <time>2019-04-22T16:56:41Z</time>
      </trkpt>
      <trkpt lat="52.00031183028" lon="4.133665832287">
        <ele>0</ele>
        <time>2019-04-22T16:56:55Z</time>
      </trkpt>
      <trkpt lat="52.000304454208" lon="4.1336010402">
        <ele>0</ele>
        <time>2019-04-22T16:56:58Z</time>
      </trkpt>
      <trkpt lat="52.00008300441" lon="4.133545216746">
        <ele>0</ele>
        <time>2019-04-22T16:57:09Z</time>
      </trkpt>
      <trkpt lat="52.000090464301" lon="4.133591568653">
        <ele>0</ele>
        <time>2019-04-22T16:57:12Z</time>
      </trkpt>
      <trkpt lat="52.000393553805" lon="4.13349710464">
        <ele>0</ele>
        <time>2019-04-22T16:57:36Z</time>
      </trkpt>
      <trkpt lat="52.000423896283" lon="4.133387972302">
        <ele>0</ele>
        <time>2019-04-22T16:57:49Z</time>
      </trkpt>
      <trkpt lat="52.000664875908" lon="4.132642486116">
        <ele>0</ele>
        <time>2019-04-22T16:58:10Z</time>
      </trkpt>
    </trkseg>
  </trk>
</gpx>